Time;durP1;ratioP1;P1;durP2;ratioP2;P2;SDS_P1;SDS_P2;PMS_P1;PMS_P2;Temp;Humidity;BMP_temperature;BMP_pressure;BME280_temperature;BME280_humidity;BME280_pressure;Samples;Min_cycle;Max_cycle;Signal;HPM_P1;HPM_P2
2022/01/23 00:02:07;;;;;;;3.20;2.53;;;6.60;99.90;;;;;;5004226;28;20595;-92
2022/01/23 00:04:39;;;;;;;2.57;2.23;;;6.50;99.90;;;;;;5174970;23;20242;-94
2022/01/23 00:07:13;;;;;;;3.23;2.73;;;6.40;99.90;;;;;;5011040;28;20210;-94
2022/01/23 00:09:44;;;;;;;5.07;4.27;;;6.40;99.90;;;;;;5007036;28;20221;-93
2022/01/23 00:12:19;;;;;;;3.90;2.70;;;6.30;99.90;;;;;;4998523;28;20277;-94
2022/01/23 00:17:54;;;;;;;2.40;2.20;;;6.20;99.90;;;;;;4937881;29;20249;-93
2022/01/23 00:20:26;;;;;;;3.93;2.60;;;6.20;99.90;;;;;;4938746;29;20280;-93
2022/01/23 00:22:59;;;;;;;3.90;2.70;;;6.20;99.90;;;;;;4985584;28;20622;-93
2022/01/23 00:31:06;;;;;;;2.80;2.40;;;5.90;99.90;;;;;;5017579;28;20206;-93
2022/01/23 00:33:38;;;;;;;3.00;2.43;;;5.80;99.90;;;;;;5018282;28;20205;-93
2022/01/23 00:36:10;;;;;;;3.57;2.87;;;5.70;99.90;;;;;;5021879;28;20264;-93
2022/01/23 00:38:41;;;;;;;5.13;3.57;;;5.60;99.90;;;;;;5020924;28;20646;-93
2022/01/23 00:41:13;;;;;;;5.83;3.90;;;5.60;99.90;;;;;;5017840;28;20241;-93
2022/01/23 00:43:45;;;;;;;4.80;3.73;;;5.50;99.90;;;;;;5019535;28;20212;-93
2022/01/23 00:46:32;;;;;;;5.23;4.30;;;5.40;99.90;;;;;;5004728;28;20206;-93
2022/01/23 00:51:50;;;;;;;4.37;3.27;;;5.20;99.90;;;;;;5003715;28;20257;-93
2022/01/23 00:54:22;;;;;;;3.63;3.27;;;5.10;99.90;;;;;;5024635;28;20182;-93
2022/01/23 00:56:54;;;;;;;4.17;3.60;;;5.00;99.90;;;;;;5037906;28;20213;-93
2022/01/23 00:59:25;;;;;;;3.90;3.30;;;4.90;99.90;;;;;;5036467;28;20206;-93
2022/01/23 01:01:57;;;;;;;3.40;2.93;;;4.80;99.90;;;;;;5015163;28;20211;-93
2022/01/23 01:04:29;;;;;;;4.27;3.33;;;4.80;99.90;;;;;;5030329;28;20239;-93
2022/01/23 01:06:59;;;;;;;4.07;3.30;;;4.70;99.90;;;;;;5021537;28;20544;-93
2022/01/23 01:09:31;;;;;;;3.90;3.60;;;4.60;99.90;;;;;;5007998;28;20273;-93
2022/01/23 01:12:06;;;;;;;3.93;3.33;;;4.50;99.90;;;;;;5002637;28;20258;-93
2022/01/23 01:17:35;;;;;;;5.30;3.63;;;4.40;99.90;;;;;;4969684;28;20269;-93
2022/01/23 01:31:29;;;;;;;3.87;3.47;;;4.10;99.90;;;;;;4997770;28;20213;-93
2022/01/23 01:34:07;;;;;;;3.73;3.33;;;4.00;99.90;;;;;;4997171;28;20209;-93
2022/01/23 01:36:46;;;;;;;4.43;3.97;;;3.90;99.90;;;;;;4996976;28;20671;-93
2022/01/23 01:39:20;;;;;;;4.33;3.67;;;3.80;99.90;;;;;;5004266;28;20261;-92
2022/01/23 01:41:53;;;;;;;4.80;4.07;;;3.80;99.90;;;;;;5000437;28;20272;-93
2022/01/23 01:44:27;;;;;;;4.80;4.03;;;3.70;99.90;;;;;;5007855;28;20213;-93
2022/01/23 01:46:59;;;;;;;5.67;4.20;;;3.70;99.90;;;;;;5013732;28;20198;-93
2022/01/23 01:49:35;;;;;;;5.80;5.17;;;3.70;99.90;;;;;;5008366;28;20215;-93
2022/01/23 01:52:07;;;;;;;6.23;5.23;;;3.70;99.90;;;;;;5007830;28;20209;-94
2022/01/23 01:54:38;;;;;;;8.33;5.60;;;3.70;99.90;;;;;;5011261;28;20210;-93
2022/01/23 01:57:11;;;;;;;6.63;5.17;;;3.60;99.90;;;;;;5012076;28;20226;-93
2022/01/23 02:02:55;;;;;;;6.97;5.03;;;3.60;99.90;;;;;;4993920;28;20198;-93
2022/01/23 02:08:24;;;;;;;7.03;4.87;;;3.50;99.90;;;;;;4992072;28;20219;-93
2022/01/23 02:11:00;;;;;;;6.90;5.87;;;3.50;99.90;;;;;;4979427;28;20671;-92
2022/01/23 02:13:35;;;;;;;9.27;5.90;;;3.40;99.90;;;;;;4995618;28;20215;-93
2022/01/23 02:53:14;;;;;;;9.13;6.57;;;3.00;99.90;;;;;;4932244;29;20272;-93
2022/01/23 02:55:49;;;;;;;20.43;17.77;;;3.00;99.90;;;;;;4931783;29;20209;-93
2022/01/23 02:58:23;;;;;;;14.83;11.87;;;3.00;99.90;;;;;;4965653;28;20380;-92
2022/01/23 03:01:08;;;;;;;12.87;10.70;;;3.00;99.90;;;;;;4989479;28;20202;-94
2022/01/23 03:03:44;;;;;;;12.97;10.97;;;2.90;99.90;;;;;;4988240;28;20206;-94
2022/01/23 03:06:36;;;;;;;9.07;7.13;;;2.90;99.90;;;;;;4990252;28;20214;-93
2022/01/23 03:14:50;;;;;;;11.33;8.17;;;2.90;99.90;;;;;;4982257;28;20275;-91
2022/01/23 03:28:39;;;;;;;17.27;7.87;;;2.70;99.90;;;;;;4982308;28;20207;-93
2022/01/23 03:31:21;;;;;;;22.77;8.70;;;2.70;99.90;;;;;;4994183;28;20214;-93
2022/01/23 03:33:53;;;;;;;10.37;7.53;;;2.70;99.90;;;;;;4988700;28;20230;-94
2022/01/23 03:36:27;;;;;;;10.63;7.37;;;2.60;99.90;;;;;;4985329;28;20211;-96
2022/01/23 03:38:59;;;;;;;14.60;7.77;;;2.60;99.90;;;;;;4996623;28;20250;-94
2022/01/23 03:41:30;;;;;;;7.87;6.40;;;2.60;99.90;;;;;;5001194;28;20218;-94
2022/01/23 03:44:05;;;;;;;9.80;7.17;;;2.60;99.90;;;;;;5001838;28;20265;-94
2022/01/23 03:46:48;;;;;;;9.43;6.40;;;2.50;99.90;;;;;;5002191;28;20757;-94
2022/01/23 03:49:31;;;;;;;9.50;7.23;;;2.50;99.90;;;;;;4998222;28;20203;-93
2022/01/23 03:52:04;;;;;;;10.97;7.13;;;2.50;99.90;;;;;;4998525;28;20213;-93
2022/01/23 03:54:36;;;;;;;7.43;5.90;;;2.40;99.90;;;;;;4998556;28;20206;-94
2022/01/23 03:57:08;;;;;;;19.63;7.37;;;2.40;99.90;;;;;;4997703;28;20242;-94
2022/01/23 03:59:42;;;;;;;23.17;6.40;;;2.30;99.90;;;;;;5001343;28;20318;-94
2022/01/23 04:02:14;;;;;;;38.40;7.50;;;2.30;99.90;;;;;;5005260;28;20234;-93
2022/01/23 04:04:46;;;;;;;22.07;6.90;;;2.30;99.90;;;;;;5011469;28;20214;-94
2022/01/23 04:07:20;;;;;;;46.40;7.30;;;2.30;99.90;;;;;;4998061;28;20213;-93
2022/01/23 04:09:52;;;;;;;62.07;8.43;;;2.30;99.90;;;;;;4979712;28;20275;-93
2022/01/23 04:12:37;;;;;;;82.07;9.03;;;2.40;99.90;;;;;;4991811;28;20223;-93
2022/01/23 04:15:32;;;;;;;34.77;6.93;;;2.40;99.90;;;;;;4994068;28;20231;-92
2022/01/23 04:18:49;;;;;;;26.80;7.47;;;2.40;99.90;;;;;;4989106;28;20231;-94
2022/01/23 04:21:20;;;;;;;47.07;7.83;;;2.40;99.90;;;;;;4992594;28;20245;-93
2022/01/23 04:32:34;;;;;;;59.83;9.43;;;2.30;99.90;;;;;;5048776;22;20276;-91
2022/01/23 04:35:29;;;;;;;29.77;8.03;;;2.30;99.90;;;;;;4998994;28;20214;-93
2022/01/23 05:00:52;;;;;;;10.17;8.20;;;2.00;99.90;;;;;;5031673;28;20259;-95
2022/01/23 05:06:26;;;;;;;12.73;6.77;;;2.00;99.90;;;;;;5031146;28;20202;-95
2022/01/23 05:08:58;;;;;;;16.03;7.97;;;2.00;99.90;;;;;;5018400;28;20217;-94
2022/01/23 05:11:30;;;;;;;19.93;7.70;;;1.90;99.90;;;;;;5011930;28;20206;-95
2022/01/23 05:14:06;;;;;;;12.60;7.60;;;1.90;99.90;;;;;;5012876;28;20206;-95
2022/01/23 05:16:38;;;;;;;11.97;7.00;;;1.80;99.90;;;;;;5009682;28;20225;-95
2022/01/23 05:19:09;;;;;;;10.73;7.23;;;1.80;99.90;;;;;;5009836;28;20234;-95
2022/01/23 05:24:44;;;;;;;12.43;8.57;;;1.70;99.90;;;;;;4964438;28;20206;-94
2022/01/23 05:27:15;;;;;;;9.30;7.20;;;1.70;99.90;;;;;;5011369;28;20241;-94
2022/01/23 05:29:47;;;;;;;9.33;7.73;;;1.70;99.90;;;;;;5012205;28;20288;-95
2022/01/23 05:32:20;;;;;;;12.03;7.27;;;1.60;99.90;;;;;;5016291;28;20205;-90
2022/01/23 05:34:52;;;;;;;12.20;7.23;;;1.60;99.90;;;;;;5018297;28;20217;-94
2022/01/23 05:37:24;;;;;;;12.07;7.80;;;1.50;99.90;;;;;;5018424;28;20203;-93
2022/01/23 05:39:56;;;;;;;17.13;8.30;;;1.60;99.90;;;;;;4998250;28;20238;-94
2022/01/23 05:42:27;;;;;;;17.00;8.40;;;1.60;99.90;;;;;;5015850;28;20249;-95
2022/01/23 05:44:58;;;;;;;12.53;7.97;;;1.70;99.90;;;;;;5015249;28;20210;-93
2022/01/23 05:47:30;;;;;;;22.40;9.00;;;1.70;99.90;;;;;;5009606;28;20261;-94
2022/01/23 05:50:09;;;;;;;14.57;9.00;;;1.60;99.90;;;;;;4994971;28;20206;-95
2022/01/23 05:52:43;;;;;;;20.47;9.60;;;1.60;99.90;;;;;;4996008;28;20245;-96
2022/01/23 05:55:15;;;;;;;12.50;8.60;;;1.60;99.90;;;;;;5004798;28;20209;-94
2022/01/23 05:57:48;;;;;;;14.70;8.53;;;1.60;99.90;;;;;;5009549;28;20217;-94
2022/01/23 06:00:19;;;;;;;12.27;8.30;;;1.60;99.90;;;;;;4991416;28;20270;-94
2022/01/23 06:02:51;;;;;;;14.10;8.33;;;1.50;99.90;;;;;;5005169;28;20269;-95
2022/01/23 06:05:23;;;;;;;11.50;8.17;;;1.60;99.90;;;;;;5011413;28;20210;-95
2022/01/23 06:07:57;;;;;;;11.07;7.73;;;1.50;99.90;;;;;;4993967;28;20214;-94
2022/01/23 06:10:35;;;;;;;16.13;8.53;;;1.50;99.90;;;;;;5011476;28;20209;-95
2022/01/23 06:13:07;;;;;;;13.63;8.83;;;1.50;99.90;;;;;;5000108;28;20570;-94
2022/01/23 06:15:38;;;;;;;18.43;9.70;;;1.50;99.90;;;;;;4997919;28;20210;-94
2022/01/23 06:18:09;;;;;;;16.83;9.30;;;1.50;99.90;;;;;;5000772;28;20656;-94
2022/01/23 06:20:40;;;;;;;13.73;9.60;;;1.50;99.90;;;;;;5010396;28;20202;-94
2022/01/23 06:23:13;;;;;;;14.53;10.53;;;1.50;99.90;;;;;;5005618;28;20203;-95
2022/01/23 06:25:45;;;;;;;32.07;11.50;;;1.50;99.90;;;;;;5008071;28;20210;-94
2022/01/23 06:28:34;;;;;;;35.47;11.60;;;1.50;99.90;;;;;;5003769;28;20244;-93
2022/01/23 06:31:06;;;;;;;33.67;11.77;;;1.60;99.90;;;;;;4996999;28;20665;-93
2022/01/23 06:33:37;;;;;;;60.90;11.90;;;1.60;99.90;;;;;;4982918;28;20226;-94
2022/01/23 06:36:10;;;;;;;65.30;11.57;;;1.70;99.90;;;;;;4996899;28;20218;-93
2022/01/23 06:38:44;;;;;;;78.73;13.80;;;1.70;99.90;;;;;;4996792;28;20265;-93
2022/01/23 06:41:16;;;;;;;73.00;11.17;;;1.80;99.90;;;;;;5012268;28;20212;-96
2022/01/23 06:43:47;;;;;;;119.03;12.03;;;1.80;99.90;;;;;;5018120;28;20212;-93
2022/01/23 06:46:19;;;;;;;166.43;13.90;;;1.90;99.90;;;;;;5001967;28;20663;-93
2022/01/23 06:48:50;;;;;;;162.13;14.47;;;2.00;99.90;;;;;;5010384;28;20206;-94
2022/01/23 06:51:22;;;;;;;96.53;12.17;;;2.00;99.90;;;;;;5017829;28;20558;-94
2022/01/23 06:53:55;;;;;;;107.33;11.53;;;2.00;99.90;;;;;;5018382;28;20547;-94
2022/01/23 06:56:27;;;;;;;151.60;13.70;;;2.10;99.90;;;;;;5017879;28;20666;-94
2022/01/23 06:58:58;;;;;;;145.70;13.33;;;2.10;99.90;;;;;;5020807;28;20611;-93
2022/01/23 07:01:31;;;;;;;145.10;12.23;;;2.10;99.90;;;;;;5027212;28;20206;-94
2022/01/23 07:04:02;;;;;;;137.93;12.67;;;2.20;99.90;;;;;;5035274;28;20210;-95
2022/01/23 07:06:34;;;;;;;121.33;12.10;;;2.20;99.90;;;;;;5034282;28;20201;-94
2022/01/23 07:09:12;;;;;;;175.37;14.33;;;2.20;99.90;;;;;;5020828;28;20241;-94
2022/01/23 07:11:42;;;;;;;86.77;13.30;;;2.30;99.90;;;;;;5014900;28;20221;-94
2022/01/23 07:14:14;;;;;;;94.83;11.47;;;2.40;99.90;;;;;;5015364;28;20206;-93
2022/01/23 07:16:45;;;;;;;69.87;10.63;;;2.40;99.90;;;;;;5016790;28;20198;-94
2022/01/23 07:19:17;;;;;;;102.93;11.73;;;2.40;99.90;;;;;;5017210;28;20308;-93
2022/01/23 07:21:48;;;;;;;91.60;10.97;;;2.50;99.90;;;;;;5009080;28;20243;-94
2022/01/23 07:24:21;;;;;;;69.63;10.20;;;2.50;99.90;;;;;;5000832;28;20202;-93
2022/01/23 07:26:52;;;;;;;94.60;11.83;;;2.50;99.90;;;;;;5000192;28;20202;-94
2022/01/23 07:29:23;;;;;;;53.43;10.90;;;2.60;99.90;;;;;;5000692;28;20198;-94
2022/01/23 07:31:59;;;;;;;47.73;10.13;;;2.60;99.90;;;;;;5000065;28;20245;-94
2022/01/23 07:34:31;;;;;;;28.00;9.63;;;2.60;99.90;;;;;;4999385;28;20288;-94
2022/01/23 07:37:02;;;;;;;92.33;11.53;;;2.70;99.90;;;;;;4999817;28;20209;-94
2022/01/23 07:39:38;;;;;;;126.63;12.60;;;2.70;99.90;;;;;;4983477;28;20230;-93
2022/01/23 07:42:11;;;;;;;63.33;10.57;;;2.60;99.90;;;;;;5001901;28;20194;-94
2022/01/23 07:44:42;;;;;;;68.87;10.27;;;2.60;99.90;;;;;;5001123;28;20377;-93
2022/01/23 07:47:13;;;;;;;95.07;11.03;;;2.70;99.90;;;;;;5001087;28;20269;-93
2022/01/23 07:49:46;;;;;;;207.60;16.53;;;2.70;99.90;;;;;;5010994;28;20245;-93
2022/01/23 07:52:17;;;;;;;132.37;12.53;;;2.70;99.90;;;;;;5019871;28;20194;-94
2022/01/23 07:54:50;;;;;;;145.67;12.23;;;2.70;99.90;;;;;;5020444;28;20194;-94
2022/01/23 07:57:21;;;;;;;187.77;15.20;;;2.70;99.90;;;;;;5018320;28;20228;-95
2022/01/23 07:59:51;;;;;;;136.80;11.70;;;2.70;99.90;;;;;;5010885;28;20226;-94
2022/01/23 08:02:23;;;;;;;115.80;11.03;;;2.70;99.90;;;;;;5016983;28;20198;-94
2022/01/23 08:04:54;;;;;;;120.10;11.67;;;2.70;99.90;;;;;;5003749;28;20238;-95
2022/01/23 08:07:32;;;;;;;134.97;10.63;;;2.70;99.90;;;;;;4999409;28;20210;-94
2022/01/23 08:10:08;;;;;;;141.73;12.03;;;2.70;99.90;;;;;;5010209;28;20194;-93
2022/01/23 08:12:39;;;;;;;148.50;13.73;;;2.70;99.90;;;;;;5125569;23;20230;-93
2022/01/23 08:15:12;;;;;;;94.67;11.23;;;2.80;99.90;;;;;;4985876;28;20203;-94
2022/01/23 08:17:43;;;;;;;115.13;13.67;;;2.70;99.90;;;;;;4983819;28;20621;-94
2022/01/23 08:20:15;;;;;;;129.70;13.50;;;2.70;99.90;;;;;;4964042;28;20293;-95
2022/01/23 08:22:46;;;;;;;153.37;13.40;;;2.70;99.90;;;;;;4981470;28;20221;-94
2022/01/23 08:25:20;;;;;;;217.63;15.03;;;2.70;99.90;;;;;;4990485;28;20269;-94
2022/01/23 08:27:51;;;;;;;153.77;12.07;;;2.80;99.90;;;;;;4991615;28;20206;-94
2022/01/23 08:30:23;;;;;;;205.30;16.53;;;2.70;99.90;;;;;;4965293;28;20203;-93
2022/01/23 08:32:54;;;;;;;196.53;15.03;;;2.70;99.90;;;;;;4985572;28;20208;-94
2022/01/23 08:35:26;;;;;;;83.17;11.20;;;2.70;99.90;;;;;;4999763;28;20195;-94
2022/01/23 08:37:57;;;;;;;199.00;15.73;;;2.70;99.90;;;;;;4999355;28;20202;-94
2022/01/23 08:43:19;;;;;;;79.13;10.53;;;2.70;99.90;;;;;;4999791;28;20677;-94
2022/01/23 08:45:51;;;;;;;150.30;15.27;;;2.70;99.90;;;;;;5008445;28;20207;-93
2022/01/23 08:48:23;;;;;;;168.23;15.00;;;2.80;99.90;;;;;;5018044;28;20216;-94
2022/01/23 08:50:55;;;;;;;66.60;11.47;;;2.80;99.90;;;;;;5016417;28;20198;-93
2022/01/23 08:53:28;;;;;;;248.13;19.00;;;2.80;99.90;;;;;;5001300;28;20245;-94
2022/01/23 08:56:02;;;;;;;149.67;13.47;;;2.80;99.90;;;;;;5015847;28;20210;-94
2022/01/23 08:58:34;;;;;;;197.93;14.13;;;2.80;99.90;;;;;;5015721;28;20201;-93
2022/01/23 09:01:07;;;;;;;293.97;17.07;;;2.80;99.90;;;;;;5015058;28;20240;-94
2022/01/23 09:03:39;;;;;;;173.50;13.77;;;2.80;99.90;;;;;;5016967;28;20253;-93
2022/01/23 09:06:14;;;;;;;286.77;16.33;;;2.80;99.90;;;;;;5018195;28;20198;-93
2022/01/23 09:08:48;;;;;;;342.77;20.87;;;2.80;99.90;;;;;;4990169;28;20215;-91
2022/01/23 09:11:37;;;;;;;338.67;24.87;;;2.80;99.90;;;;;;4996078;28;20238;-94
2022/01/23 09:14:10;;;;;;;258.17;18.90;;;2.80;99.90;;;;;;4993693;28;20217;-94
2022/01/23 09:16:45;;;;;;;421.40;24.10;;;2.80;99.90;;;;;;4993857;28;20195;-94
2022/01/23 09:19:17;;;;;;;526.83;24.80;;;2.70;99.90;;;;;;4974810;28;20218;-94
2022/01/23 09:21:51;;;;;;;291.43;17.37;;;2.70;99.90;;;;;;4988484;28;20266;-94
2022/01/23 09:24:23;;;;;;;470.80;22.83;;;2.70;99.90;;;;;;4982575;28;20273;-93
2022/01/23 09:27:02;;;;;;;420.83;21.40;;;2.70;99.90;;;;;;4981925;28;20295;-94
2022/01/23 09:32:22;;;;;;;483.63;25.37;;;2.60;99.90;;;;;;5041158;23;20253;-94
2022/01/23 09:34:54;;;;;;;360.67;19.50;;;2.60;99.90;;;;;;5002332;28;20207;-94
2022/01/23 09:37:26;;;;;;;295.07;17.87;;;2.70;99.90;;;;;;4981984;28;20329;-94
2022/01/23 09:39:58;;;;;;;208.37;13.27;;;2.60;99.90;;;;;;4982407;28;20279;-94
2022/01/23 09:42:36;;;;;;;167.83;13.07;;;2.70;99.90;;;;;;4963231;28;20222;-94
2022/01/23 09:45:11;;;;;;;250.90;16.17;;;2.60;99.90;;;;;;4985693;28;20202;-95
2022/01/23 09:47:43;;;;;;;131.07;12.03;;;2.60;99.90;;;;;;4998601;28;20237;-93
2022/01/23 09:50:16;;;;;;;133.60;10.53;;;2.60;99.90;;;;;;4998767;28;20252;-93
2022/01/23 09:52:47;;;;;;;155.10;12.30;;;2.60;99.90;;;;;;4998754;28;20206;-94
2022/01/23 09:55:19;;;;;;;143.70;11.13;;;2.60;99.90;;;;;;4998725;28;20210;-93
2022/01/23 09:57:52;;;;;;;184.77;13.80;;;2.60;99.90;;;;;;4998583;28;20214;-94
2022/01/23 10:00:25;;;;;;;181.83;14.50;;;2.50;99.90;;;;;;4984359;28;20234;-94
2022/01/23 10:02:59;;;;;;;198.53;13.97;;;2.50;99.90;;;;;;4999713;28;20659;-93
2022/01/23 10:05:31;;;;;;;271.77;17.03;;;2.60;99.90;;;;;;5000738;28;20209;-94
2022/01/23 10:08:03;;;;;;;74.87;10.37;;;2.50;99.90;;;;;;4999752;28;20225;-94
2022/01/23 10:10:39;;;;;;;157.17;13.13;;;2.60;99.90;;;;;;5005800;28;20217;-94
2022/01/23 10:13:13;;;;;;;234.90;16.03;;;2.60;99.90;;;;;;5017168;28;20220;-93
2022/01/23 10:15:46;;;;;;;182.47;13.67;;;2.70;99.90;;;;;;5016152;28;20202;-95
2022/01/23 10:18:19;;;;;;;160.53;13.47;;;2.70;99.90;;;;;;5014923;28;20221;-94
2022/01/23 10:20:50;;;;;;;134.97;13.70;;;2.70;99.90;;;;;;5015729;28;20269;-94
2022/01/23 10:23:23;;;;;;;178.77;13.23;;;2.70;99.90;;;;;;5008906;28;20203;-94
2022/01/23 10:25:55;;;;;;;155.93;14.47;;;2.70;99.90;;;;;;5000814;28;20297;-93
2022/01/23 10:28:30;;;;;;;181.97;14.50;;;2.60;99.90;;;;;;4997918;28;20217;-94
2022/01/23 10:31:04;;;;;;;172.37;14.83;;;2.70;99.90;;;;;;4998123;28;20201;-94
2022/01/23 10:33:40;;;;;;;210.87;16.67;;;2.80;99.90;;;;;;4999059;28;20704;-93
2022/01/23 10:36:14;;;;;;;110.63;14.23;;;2.80;99.90;;;;;;4998016;28;20248;-94
2022/01/23 10:38:56;;;;;;;153.53;13.73;;;2.90;99.90;;;;;;4990935;28;20202;-93
2022/01/23 10:41:44;;;;;;;178.30;12.80;;;2.90;99.90;;;;;;5017328;28;20236;-95
2022/01/23 10:47:43;;;;;;;194.90;14.00;;;2.90;99.90;;;;;;4976850;28;20209;-94
2022/01/23 10:50:14;;;;;;;166.87;13.20;;;3.00;99.90;;;;;;4977260;28;20298;-94
2022/01/23 10:53:00;;;;;;;109.67;12.17;;;2.90;99.90;;;;;;4978743;28;20217;-94
2022/01/23 10:55:33;;;;;;;127.03;12.80;;;2.90;99.90;;;;;;4978106;28;20214;-95
2022/01/23 10:58:07;;;;;;;196.73;14.27;;;3.00;99.90;;;;;;4992187;28;20290;-94
2022/01/23 11:00:42;;;;;;;205.03;14.20;;;3.00;99.90;;;;;;4996893;28;20230;-94
2022/01/23 11:03:17;;;;;;;199.33;14.90;;;3.00;99.90;;;;;;4996511;28;20225;-94
2022/01/23 11:05:48;;;;;;;243.37;16.80;;;3.00;99.90;;;;;;4995992;28;20244;-94
2022/01/23 11:08:24;;;;;;;159.03;12.97;;;3.00;99.90;;;;;;5001126;28;20232;-94
2022/01/23 11:10:56;;;;;;;210.87;13.87;;;2.90;99.90;;;;;;5015959;28;20213;-94
2022/01/23 11:19:25;;;;;;;104.13;10.17;;;2.90;99.90;;;;;;5029387;28;20213;-94
2022/01/23 11:22:00;;;;;;;116.70;11.17;;;2.90;99.90;;;;;;5016625;28;20229;-94
2022/01/23 11:24:39;;;;;;;211.57;14.50;;;2.80;99.90;;;;;;5045912;23;20280;-94
2022/01/23 11:27:15;;;;;;;184.70;13.73;;;2.80;99.90;;;;;;4996649;28;20207;-94
2022/01/23 11:30:05;;;;;;;204.30;12.83;;;2.80;99.90;;;;;;4996784;28;20248;-94
2022/01/23 11:32:40;;;;;;;50.27;8.37;;;2.70;99.90;;;;;;4996598;28;20241;-94
2022/01/23 11:35:13;;;;;;;170.03;11.57;;;2.70;99.90;;;;;;5111017;23;20233;-94
2022/01/23 11:37:49;;;;;;;151.53;10.97;;;2.80;99.90;;;;;;4996849;28;20202;-95
2022/01/23 11:40:36;;;;;;;234.40;13.37;;;2.80;99.90;;;;;;4997049;28;20238;-95
2022/01/23 11:54:53;;;;;;;148.83;10.33;;;2.80;99.90;;;;;;5001230;28;20239;-95
2022/01/23 11:57:47;;;;;;;237.17;14.40;;;2.70;99.90;;;;;;4998768;28;20214;-94
2022/01/23 12:00:26;;;;;;;219.43;14.03;;;2.60;99.90;;;;;;4986261;28;20293;-94
2022/01/23 12:03:14;;;;;;;317.17;16.90;;;2.60;99.90;;;;;;5001233;28;20296;-95
2022/01/23 12:05:48;;;;;;;150.37;11.17;;;2.60;99.90;;;;;;5003162;28;20269;-94
2022/01/23 12:08:32;;;;;;;280.43;17.57;;;2.60;99.90;;;;;;5000469;28;20237;-95
2022/01/23 12:11:37;;;;;;;190.93;11.20;;;2.60;99.90;;;;;;5000411;28;20210;-94
2022/01/23 12:17:38;;;;;;;215.60;12.73;;;2.60;99.90;;;;;;5000769;28;20248;-95
2022/01/23 12:20:10;;;;;;;269.50;15.20;;;2.60;99.90;;;;;;5003105;28;20210;-93
2022/01/23 12:22:57;;;;;;;255.73;15.80;;;2.60;99.90;;;;;;5001364;28;20341;-94
2022/01/23 12:25:40;;;;;;;109.27;9.77;;;2.60;99.90;;;;;;5000530;28;20214;-94
2022/01/23 12:28:25;;;;;;;285.43;14.10;;;2.60;99.90;;;;;;5000566;28;20210;-95
2022/01/23 12:30:58;;;;;;;137.63;11.80;;;2.50;99.90;;;;;;5015528;28;20194;-91
2022/01/23 12:33:33;;;;;;;162.97;11.87;;;2.50;99.90;;;;;;5018118;28;20295;-94
2022/01/23 12:36:20;;;;;;;319.43;16.17;;;2.50;99.90;;;;;;5015872;28;20245;-95
2022/01/23 12:38:55;;;;;;;277.03;15.80;;;2.60;99.90;;;;;;5022212;23;20237;-94
2022/01/23 12:41:32;;;;;;;322.20;14.97;;;2.60;99.90;;;;;;5013038;28;20225;-94
2022/01/23 12:44:07;;;;;;;272.77;13.57;;;2.60;99.90;;;;;;5000551;28;20240;-94
2022/01/23 12:46:41;;;;;;;381.10;21.73;;;2.60;99.90;;;;;;5003634;28;20217;-94
2022/01/23 12:49:24;;;;;;;223.30;13.00;;;2.60;99.90;;;;;;5002038;28;20245;-94
2022/01/23 12:55:00;;;;;;;330.10;16.43;;;2.60;99.90;;;;;;4980265;28;20699;-94
2022/01/23 12:57:37;;;;;;;404.33;20.93;;;2.60;99.90;;;;;;4979901;28;20253;-94
2022/01/23 13:00:15;;;;;;;208.67;15.03;;;2.50;99.90;;;;;;4980316;28;20273;-94
2022/01/23 13:02:50;;;;;;;588.90;26.53;;;2.50;99.90;;;;;;4978258;28;20337;-94
2022/01/23 13:05:22;;;;;;;400.60;19.23;;;2.50;99.90;;;;;;4978978;28;20320;-94
2022/01/23 13:08:06;;;;;;;235.67;12.90;;;2.50;99.90;;;;;;4993145;28;20206;-92
2022/01/23 13:10:57;;;;;;;95.93;8.50;;;2.60;99.90;;;;;;4977722;28;20238;-92
2022/01/23 13:13:37;;;;;;;189.57;12.13;;;2.60;99.90;;;;;;4959441;28;20239;-93
2022/01/23 13:19:33;;;;;;;209.67;11.07;;;2.60;99.90;;;;;;4960137;28;20212;-92
2022/01/23 13:30:39;;;;;;;262.60;12.30;;;2.50;99.90;;;;;;4951212;28;20215;-94
2022/01/23 13:33:19;;;;;;;187.57;9.77;;;2.50;99.90;;;;;;4958371;28;20258;-95
2022/01/23 13:35:53;;;;;;;233.77;12.27;;;2.50;99.90;;;;;;4958253;28;20249;-94
2022/01/23 13:38:25;;;;;;;155.30;11.73;;;2.50;99.90;;;;;;4964749;28;20548;-94
2022/01/23 13:41:05;;;;;;;187.97;10.07;;;2.50;99.90;;;;;;4977691;28;20225;-94
2022/01/23 13:52:40;;;;;;;267.00;13.60;;;2.30;99.90;;;;;;4995530;28;20990;-94
2022/01/23 14:00:45;;;;;;;344.63;16.43;;;2.30;99.90;;;;;;4984286;28;20207;-94
2022/01/23 14:03:18;;;;;;;274.40;13.17;;;2.30;99.90;;;;;;4979618;28;20237;-93
2022/01/23 14:05:49;;;;;;;350.10;14.53;;;2.30;99.90;;;;;;4977521;28;20222;-93
2022/01/23 14:08:21;;;;;;;354.13;19.30;;;2.30;99.90;;;;;;4977639;28;20269;-93
2022/01/23 14:10:55;;;;;;;325.43;17.67;;;2.20;99.90;;;;;;4977654;28;20246;-95
2022/01/23 14:13:27;;;;;;;516.53;22.93;;;2.30;99.90;;;;;;4976626;28;20259;-94
2022/01/23 14:15:59;;;;;;;298.07;14.13;;;2.30;99.90;;;;;;4977895;28;20275;-94
2022/01/23 14:18:32;;;;;;;219.80;13.10;;;2.30;99.90;;;;;;4979322;28;20226;-94
2022/01/23 14:21:05;;;;;;;336.27;15.53;;;2.30;99.90;;;;;;4979407;28;20222;-94
2022/01/23 14:23:37;;;;;;;371.93;17.97;;;2.30;99.90;;;;;;4977373;28;20322;-94
2022/01/23 14:26:10;;;;;;;422.07;18.50;;;2.20;99.90;;;;;;4977308;28;20301;-94
2022/01/23 14:28:44;;;;;;;232.37;11.47;;;2.20;99.90;;;;;;4960953;28;20270;-94
2022/01/23 14:31:20;;;;;;;421.50;19.47;;;2.10;99.90;;;;;;5012394;28;20190;-94
2022/01/23 14:33:56;;;;;;;166.30;10.83;;;2.10;99.90;;;;;;5014413;28;20206;-92
2022/01/23 14:36:32;;;;;;;414.00;16.47;;;2.10;99.90;;;;;;5013512;28;20292;-95
2022/01/23 14:39:07;;;;;;;429.17;17.73;;;2.30;99.90;;;;;;5015153;28;20213;-93
2022/01/23 14:41:40;;;;;;;350.60;20.33;;;2.20;99.90;;;;;;5016639;28;20189;-93
2022/01/23 14:44:18;;;;;;;330.03;15.20;;;2.20;99.90;;;;;;5005946;28;20264;-94
2022/01/23 14:46:53;;;;;;;294.57;10.63;;;2.20;99.90;;;;;;4995979;28;20290;-95
2022/01/23 14:49:25;;;;;;;206.30;9.03;;;2.10;99.90;;;;;;5000196;28;20217;-96
2022/01/23 14:51:58;;;;;;;280.27;13.33;;;1.90;99.90;;;;;;5017134;28;20194;-95
2022/01/23 14:54:32;;;;;;;135.07;7.67;;;1.80;99.90;;;;;;5016733;28;20249;-94
2022/01/23 14:57:04;;;;;;;260.80;10.97;;;1.80;99.90;;;;;;5009110;28;20206;-95
2022/01/23 14:59:38;;;;;;;212.80;9.60;;;1.90;99.90;;;;;;4999787;28;20317;-96
2022/01/23 15:02:11;;;;;;;203.17;11.07;;;1.90;99.90;;;;;;5000433;28;20234;-93
2022/01/23 15:04:44;;;;;;;162.47;9.10;;;1.90;99.90;;;;;;4997021;28;20241;-93
2022/01/23 15:07:18;;;;;;;209.73;10.07;;;2.00;99.90;;;;;;4997127;28;20535;-96
2022/01/23 15:09:51;;;;;;;232.57;9.37;;;2.00;99.90;;;;;;4997999;28;20314;-94
2022/01/23 15:12:22;;;;;;;200.20;7.50;;;2.10;99.90;;;;;;5009757;28;20202;-95
2022/01/23 15:14:53;;;;;;;238.90;9.73;;;2.00;99.90;;;;;;5013084;28;20198;-94
2022/01/23 15:17:26;;;;;;;185.40;8.93;;;2.00;99.90;;;;;;5014781;28;20186;-93
2022/01/23 15:19:58;;;;;;;225.90;9.53;;;2.00;99.90;;;;;;4983704;28;20192;-94
2022/01/23 15:22:29;;;;;;;315.80;13.53;;;2.00;99.90;;;;;;4979750;28;20207;-94
2022/01/23 15:25:01;;;;;;;294.33;13.90;;;2.10;99.90;;;;;;4980046;28;20196;-94
2022/01/23 15:27:33;;;;;;;328.37;13.17;;;2.10;99.90;;;;;;4970048;28;20207;-94
2022/01/23 15:30:05;;;;;;;307.73;13.53;;;2.00;99.90;;;;;;4962112;29;20215;-93
2022/01/23 15:32:40;;;;;;;222.27;11.50;;;2.00;99.90;;;;;;4963300;28;20231;-94
2022/01/23 15:35:12;;;;;;;162.07;10.20;;;2.10;99.90;;;;;;4961039;28;20298;-94
2022/01/23 15:37:43;;;;;;;146.73;10.20;;;2.00;99.90;;;;;;4962066;28;20622;-95
2022/01/23 15:40:16;;;;;;;139.40;8.40;;;2.10;99.90;;;;;;4980077;28;20294;-96
2022/01/23 15:42:50;;;;;;;181.37;9.83;;;2.10;99.90;;;;;;4981437;28;20269;-93
2022/01/23 15:45:24;;;;;;;278.17;13.03;;;2.10;99.90;;;;;;4970045;28;20210;-93
2022/01/23 15:47:57;;;;;;;265.13;11.77;;;2.00;99.90;;;;;;4985076;28;20227;-94
2022/01/23 15:50:28;;;;;;;187.70;9.50;;;2.00;99.90;;;;;;4984491;28;20239;-94
2022/01/23 15:53:00;;;;;;;314.70;13.27;;;2.00;99.90;;;;;;5090436;23;20707;-94
2022/01/23 15:55:33;;;;;;;274.90;11.53;;;2.00;99.90;;;;;;4964421;28;20690;-94
2022/01/23 15:58:05;;;;;;;121.40;7.83;;;2.00;99.90;;;;;;4979560;28;20659;-94
2022/01/23 16:00:36;;;;;;;205.50;10.90;;;2.00;99.90;;;;;;4980544;28;20558;-93
2022/01/23 16:03:09;;;;;;;165.60;10.23;;;1.90;99.90;;;;;;4979347;28;20285;-95
2022/01/23 16:05:41;;;;;;;201.83;10.30;;;2.00;99.90;;;;;;4979443;28;20207;-94
2022/01/23 16:08:13;;;;;;;146.90;8.73;;;1.90;99.90;;;;;;4963254;28;20211;-95
2022/01/23 16:10:45;;;;;;;267.80;14.63;;;1.90;99.90;;;;;;4979507;28;20301;-94
2022/01/23 16:13:16;;;;;;;296.93;13.90;;;1.90;99.90;;;;;;4979496;28;20670;-94
2022/01/23 16:15:47;;;;;;;225.47;11.27;;;1.80;99.90;;;;;;4979736;28;20231;-94